Time;durP1;ratioP1;P1;durP2;ratioP2;P2;SDS_P1;SDS_P2;PMS_P1;PMS_P2;Temp;Humidity;BMP_temperature;BMP_pressure;BME280_temperature;BME280_humidity;BME280_pressure;Samples;Min_cycle;Max_cycle;Signal;HPM_P1;HPM_P2
2022/02/11 00:09:06;;;;;;;0.10;0.10;;;3.00;99.90;;;;;;5086154;28;20037;-85
2022/02/11 00:11:36;;;;;;;0.10;0.10;;;3.00;99.90;;;;;;5069008;28;20536;-84
2022/02/11 00:14:05;;;;;;;0.20;0.20;;;3.00;99.90;;;;;;5068906;28;20033;-84
2022/02/11 00:16:33;;;;;;;0.10;0.10;;;3.00;99.90;;;;;;5068967;28;20151;-82
2022/02/11 00:19:00;;;;;;;0.15;0.15;;;3.00;99.90;;;;;;5065861;28;20047;-82
2022/02/11 00:21:28;;;;;;;0.10;0.10;;;2.90;99.90;;;;;;5068731;28;20477;-82
2022/02/11 00:23:57;;;;;;;0.10;0.10;;;2.90;99.90;;;;;;5068565;28;20051;-82
2022/02/11 00:26:31;;;;;;;0.10;0.10;;;2.90;99.90;;;;;;5069221;28;20045;-81
2022/02/11 00:30:02;;;;;;;0.20;0.20;;;2.90;99.90;;;;;;5068935;28;20051;-83
2022/02/11 00:32:21;;;;;;;0.10;0.10;;;3.20;99.90;;;;;;5085269;28;20118;-82
2022/02/11 00:34:55;;;;;;;0.10;0.10;;;2.90;99.90;;;;;;5055498;28;20091;-82
2022/02/11 00:37:24;;;;;;;0.10;0.10;;;2.90;99.90;;;;;;5053516;28;20044;-82
2022/02/11 00:40:25;;;;;;;0.17;0.17;;;2.90;99.90;;;;;;5069159;28;20497;-82
2022/02/11 01:02:31;;;;;;;0.15;0.15;;;3.20;99.90;;;;;;5074614;28;20061;-83
2022/02/11 01:04:55;;;;;;;0.13;0.13;;;3.60;99.90;;;;;;5088170;28;20429;-82
2022/02/11 01:07:22;;;;;;;0.10;0.10;;;3.30;99.90;;;;;;5071898;28;20041;-82
2022/02/11 01:09:49;;;;;;;0.10;0.10;;;3.40;99.90;;;;;;5071949;28;20071;-82
2022/02/11 01:12:16;;;;;;;0.15;0.15;;;3.40;99.90;;;;;;5072024;28;20832;-81
2022/02/11 01:14:51;;;;;;;0.10;0.10;;;3.40;99.90;;;;;;5054956;28;20123;-82
2022/02/11 01:17:39;;;;;;;0.20;0.20;;;3.50;99.90;;;;;;5073321;28;20051;-82
2022/02/11 01:23:00;;;;;;;0.10;0.10;;;3.40;99.90;;;;;;5088428;28;20093;-82
2022/02/11 01:49:57;;;;;;;0.17;0.17;;;3.20;99.90;;;;;;5073485;28;20125;-82
2022/02/11 02:05:59;;;;;;;0.13;0.13;;;3.30;99.90;;;;;;5071105;28;20053;-82
2022/02/11 02:13:56;;;;;;;0.10;0.10;;;3.60;99.90;;;;;;5070732;28;20383;-83
2022/02/11 02:24:39;;;;;;;0.13;0.13;;;3.60;99.90;;;;;;5071875;28;20048;-83
2022/02/11 02:27:26;;;;;;;0.10;0.10;;;3.60;99.90;;;;;;5073229;28;20711;-83
2022/02/11 03:54:06;;;;;;;0.10;0.10;;;4.10;99.90;;;;;;5086209;28;20044;-82
2022/02/11 04:08:34;;;;;;;0.10;0.10;;;4.20;99.90;;;;;;5071238;28;20417;-82
2022/02/11 04:21:47;;;;;;;0.10;0.10;;;4.30;99.90;;;;;;5075053;28;20494;-82
2022/02/11 04:56:57;;;;;;;0.10;0.10;;;4.20;99.90;;;;;;5075148;28;20041;-83
2022/02/11 04:59:39;;;;;;;0.10;0.10;;;4.20;99.90;;;;;;5071471;28;20512;-82
2022/02/11 05:02:07;;;;;;;0.13;0.13;;;4.30;99.90;;;;;;5070256;28;20412;-83
2022/02/11 05:04:34;;;;;;;0.10;0.10;;;4.30;99.90;;;;;;5072452;28;20123;-82
2022/02/11 05:07:03;;;;;;;0.10;0.10;;;4.20;99.90;;;;;;5072095;28;20040;-83
2022/02/11 05:09:31;;;;;;;0.10;0.10;;;4.20;99.90;;;;;;5065281;28;20556;-83
2022/02/11 05:11:58;;;;;;;0.10;0.10;;;4.20;99.90;;;;;;5052123;28;20042;-82
2022/02/11 05:14:25;;;;;;;0.10;0.10;;;4.50;99.90;;;;;;5035586;28;20038;-83
2022/02/11 05:16:51;;;;;;;0.10;0.10;;;4.20;99.90;;;;;;5035651;28;20563;-83
2022/02/11 05:19:18;;;;;;;0.10;0.10;;;4.20;99.90;;;;;;5051524;28;20136;-83
2022/02/11 05:21:45;;;;;;;0.10;0.10;;;4.20;99.90;;;;;;5068444;28;20048;-82
2022/02/11 05:24:11;;;;;;;0.10;0.10;;;5.00;99.90;;;;;;5051696;28;20087;-83
2022/02/11 05:26:38;;;;;;;0.10;0.10;;;4.60;99.90;;;;;;5035528;28;20469;-83
2022/02/11 05:29:05;;;;;;;0.10;0.10;;;4.20;99.90;;;;;;5051346;28;20490;-82
2022/02/11 05:31:31;;;;;;;0.10;0.10;;;4.20;99.90;;;;;;5068008;28;20042;-82
2022/02/11 05:33:58;;;;;;;0.17;0.17;;;4.30;99.90;;;;;;5051453;28;20083;-83
2022/02/11 05:36:25;;;;;;;0.10;0.10;;;4.20;99.90;;;;;;5068078;28;20042;-83
2022/02/11 05:38:51;;;;;;;0.10;0.10;;;4.20;99.90;;;;;;5067729;28;20042;-83
2022/02/11 05:41:20;;;;;;;0.10;0.10;;;4.20;99.90;;;;;;5051556;28;20041;-82
2022/02/11 05:43:47;;;;;;;0.10;0.10;;;4.30;99.90;;;;;;5051384;28;20487;-82
2022/02/11 05:46:14;;;;;;;0.10;0.10;;;4.20;99.90;;;;;;5067576;28;20081;-82
2022/02/11 05:48:43;;;;;;;0.63;0.63;;;4.30;99.90;;;;;;5068335;28;20037;-82
2022/02/11 05:51:10;;;;;;;0.10;0.10;;;4.60;99.90;;;;;;5053706;28;20047;-84
2022/02/11 05:53:37;;;;;;;0.10;0.10;;;4.70;99.90;;;;;;5067693;28;20034;-84
2022/02/11 05:56:04;;;;;;;0.10;0.10;;;4.50;99.90;;;;;;5067692;28;20045;-84
2022/02/11 05:58:31;;;;;;;0.10;0.10;;;4.30;99.90;;;;;;5034711;28;20133;-84
2022/02/11 06:00:58;;;;;;;0.10;0.10;;;5.20;99.90;;;;;;5050914;28;20124;-84
2022/02/11 06:03:25;;;;;;;0.10;0.10;;;4.30;99.90;;;;;;5050521;28;20473;-83
2022/02/11 06:05:52;;;;;;;0.20;0.20;;;4.30;99.90;;;;;;5034548;28;20049;-84
2022/02/11 06:08:18;;;;;;;0.10;0.10;;;4.40;99.90;;;;;;5050686;28;20068;-84
2022/02/11 06:10:47;;;;;;;0.10;0.10;;;4.30;99.90;;;;;;5067665;28;20037;-84
2022/02/11 06:13:14;;;;;;;0.10;0.10;;;4.40;99.90;;;;;;5051087;28;20580;-84
2022/02/11 06:15:45;;;;;;;0.10;0.10;;;4.40;99.90;;;;;;5067117;28;20044;-84
2022/02/11 06:18:12;;;;;;;0.10;0.10;;;4.40;99.90;;;;;;5034672;28;20041;-83
2022/02/11 06:20:39;;;;;;;0.10;0.10;;;4.40;99.90;;;;;;5067010;28;20048;-84
2022/02/11 06:23:06;;;;;;;0.10;0.10;;;4.60;99.90;;;;;;5034408;28;20045;-84
2022/02/11 06:25:33;;;;;;;0.17;0.17;;;5.00;99.90;;;;;;5050101;28;20046;-84
2022/02/11 06:28:00;;;;;;;0.10;0.10;;;4.40;99.90;;;;;;5067181;28;20120;-84
2022/02/11 06:30:26;;;;;;;0.10;0.10;;;4.40;99.90;;;;;;5050366;28;20049;-84
2022/02/11 06:32:53;;;;;;;0.10;0.10;;;4.40;99.90;;;;;;5033993;28;20044;-84
2022/02/11 06:35:20;;;;;;;0.10;0.10;;;4.40;99.90;;;;;;5066456;28;20033;-84
2022/02/11 06:37:48;;;;;;;0.20;0.20;;;4.40;99.90;;;;;;5067334;28;20041;-84
2022/02/11 06:40:19;;;;;;;0.10;0.10;;;4.30;99.90;;;;;;5049400;28;20398;-84
2022/02/11 06:42:45;;;;;;;0.10;0.10;;;4.40;99.90;;;;;;5050756;28;20033;-84
2022/02/11 06:45:12;;;;;;;0.10;0.10;;;4.60;99.90;;;;;;5033875;28;20429;-83
2022/02/11 06:47:39;;;;;;;0.10;0.10;;;4.40;99.90;;;;;;5033897;28;20064;-84
2022/02/11 06:50:06;;;;;;;0.10;0.10;;;4.40;99.90;;;;;;5034028;28;20041;-84
2022/02/11 06:52:33;;;;;;;0.20;0.20;;;4.40;99.90;;;;;;5049776;28;20045;-84
2022/02/11 06:55:00;;;;;;;0.20;0.20;;;4.40;99.90;;;;;;5050039;28;20040;-84
2022/02/11 06:57:26;;;;;;;0.10;0.10;;;5.00;99.90;;;;;;5033211;28;20067;-84
2022/02/11 06:59:53;;;;;;;0.20;0.20;;;4.40;99.90;;;;;;5066160;28;20128;-84
2022/02/11 07:02:20;;;;;;;0.10;0.10;;;4.40;99.90;;;;;;5033019;28;20049;-84
2022/02/11 07:04:47;;;;;;;0.10;0.10;;;4.40;99.90;;;;;;5065448;28;20135;-84
2022/02/11 07:07:14;;;;;;;0.10;0.10;;;4.40;99.90;;;;;;5038924;28;20119;-84
2022/02/11 07:09:41;;;;;;;0.10;0.10;;;4.40;99.90;;;;;;5053188;28;20116;-84
2022/02/11 07:12:08;;;;;;;0.10;0.10;;;4.40;99.90;;;;;;5070073;28;20441;-84
2022/02/11 07:14:35;;;;;;;0.10;0.10;;;4.40;99.90;;;;;;5069521;28;20033;-85
2022/02/11 07:17:03;;;;;;;0.10;0.10;;;4.40;99.90;;;;;;5039281;28;20091;-83
2022/02/11 07:19:30;;;;;;;0.30;0.30;;;4.40;99.90;;;;;;5065803;28;20453;-85
2022/02/11 07:22:00;;;;;;;0.13;0.13;;;4.30;99.90;;;;;;5033448;28;20045;-84
2022/02/11 07:24:28;;;;;;;0.10;0.10;;;5.40;99.90;;;;;;5033633;28;20041;-84
2022/02/11 07:26:56;;;;;;;0.17;0.17;;;4.30;99.90;;;;;;5033396;28;20044;-85
2022/02/11 07:29:23;;;;;;;0.10;0.10;;;4.40;99.90;;;;;;5068903;28;20486;-84
2022/02/11 07:31:50;;;;;;;0.10;0.10;;;4.30;99.90;;;;;;5065342;28;20041;-84
2022/02/11 07:34:17;;;;;;;0.10;0.10;;;4.30;99.90;;;;;;5030773;28;20045;-84
2022/02/11 07:36:44;;;;;;;0.10;0.10;;;4.40;99.90;;;;;;5014668;28;20421;-85
2022/02/11 07:39:11;;;;;;;0.20;0.20;;;4.40;99.90;;;;;;5049808;28;20038;-83
2022/02/11 07:41:38;;;;;;;0.10;0.10;;;4.40;99.90;;;;;;5034284;28;20048;-84
2022/02/11 07:44:05;;;;;;;0.10;0.10;;;4.40;99.90;;;;;;5029542;28;20042;-83
2022/02/11 07:46:32;;;;;;;0.10;0.10;;;4.40;99.90;;;;;;5028126;28;20045;-85
2022/02/11 07:48:58;;;;;;;0.10;0.10;;;4.70;99.90;;;;;;5048452;28;20090;-83
2022/02/11 07:51:25;;;;;;;0.10;0.10;;;4.40;99.90;;;;;;5020217;28;20045;-85
2022/02/11 07:53:53;;;;;;;0.13;0.13;;;4.30;99.90;;;;;;5020675;28;20168;-83
2022/02/11 07:56:20;;;;;;;0.10;0.10;;;4.40;99.90;;;;;;5022735;28;20060;-84
2022/02/11 07:58:47;;;;;;;0.10;0.10;;;4.40;99.90;;;;;;5057489;28;20033;-84
2022/02/11 08:01:14;;;;;;;0.20;0.20;;;4.40;99.90;;;;;;5073019;28;20048;-85
2022/02/11 08:03:41;;;;;;;0.10;0.10;;;4.40;99.90;;;;;;5053129;28;20517;-84
2022/02/11 08:06:09;;;;;;;0.10;0.10;;;4.40;99.90;;;;;;5072743;28;20044;-83
2022/02/11 08:08:36;;;;;;;0.20;0.20;;;4.80;99.90;;;;;;5041964;28;20037;-85
2022/02/11 08:11:02;;;;;;;0.10;0.10;;;4.90;99.90;;;;;;5053342;28;20041;-84
2022/02/11 08:13:31;;;;;;;0.10;0.10;;;4.40;99.90;;;;;;5036753;28;20148;-83
2022/02/11 08:15:57;;;;;;;0.10;0.10;;;4.40;99.90;;;;;;5071713;28;20069;-84
2022/02/11 08:18:24;;;;;;;0.10;0.10;;;4.40;99.90;;;;;;5042341;28;20083;-84
2022/02/11 08:20:51;;;;;;;0.10;0.10;;;4.40;99.90;;;;;;5069291;28;20689;-84
2022/02/11 08:23:17;;;;;;;0.10;0.10;;;4.40;99.90;;;;;;5069110;28;20049;-84
2022/02/11 08:25:44;;;;;;;0.10;0.10;;;4.40;99.90;;;;;;5035683;28;20053;-83
2022/02/11 08:28:11;;;;;;;0.10;0.10;;;4.40;99.90;;;;;;5072038;28;20041;-84
2022/02/11 08:30:38;;;;;;;0.10;0.10;;;4.40;99.90;;;;;;5064115;28;20566;-83
2022/02/11 08:33:05;;;;;;;0.40;0.40;;;4.50;99.90;;;;;;5072622;28;20401;-84
2022/02/11 08:35:32;;;;;;;0.10;0.10;;;4.50;99.90;;;;;;5072400;28;20033;-84
2022/02/11 08:37:59;;;;;;;0.10;0.10;;;4.50;99.90;;;;;;5067209;28;20042;-85
2022/02/11 08:40:26;;;;;;;0.10;0.10;;;4.70;99.90;;;;;;5035742;28;20034;-84
2022/02/11 08:42:53;;;;;;;0.10;0.10;;;4.50;99.90;;;;;;5058223;28;20041;-84
2022/02/11 08:45:19;;;;;;;0.20;0.20;;;4.50;99.90;;;;;;5051888;28;20039;-85
2022/02/11 08:47:46;;;;;;;0.20;0.20;;;4.80;99.90;;;;;;5068288;28;20437;-84
2022/02/11 08:50:18;;;;;;;0.10;0.10;;;4.40;99.90;;;;;;5069248;28;20513;-85
2022/02/11 08:52:45;;;;;;;0.10;0.10;;;4.50;99.90;;;;;;5072386;28;20574;-85
2022/02/11 08:55:12;;;;;;;0.10;0.10;;;5.30;99.90;;;;;;5064774;28;20037;-84
2022/02/11 08:57:44;;;;;;;0.20;0.20;;;4.40;99.90;;;;;;5048755;28;20072;-85
2022/02/11 09:00:12;;;;;;;0.10;0.10;;;4.40;99.90;;;;;;5072767;28;20036;-86
2022/02/11 09:02:38;;;;;;;0.10;0.10;;;4.30;99.90;;;;;;5070326;28;20473;-83
2022/02/11 09:05:05;;;;;;;0.10;0.10;;;4.30;99.90;;;;;;5071840;28;20084;-84
2022/02/11 09:07:32;;;;;;;0.10;0.10;;;4.30;99.90;;;;;;5069380;28;20454;-85
2022/02/11 09:09:59;;;;;;;0.10;0.10;;;4.40;99.90;;;;;;5040706;28;20045;-84
2022/02/11 09:12:26;;;;;;;0.10;0.10;;;4.40;99.90;;;;;;5069036;28;20121;-83
2022/02/11 09:14:52;;;;;;;0.10;0.10;;;4.40;99.90;;;;;;5055020;28;20033;-84
2022/02/11 09:17:19;;;;;;;0.10;0.10;;;4.50;99.90;;;;;;5065653;28;20481;-84
2022/02/11 09:19:49;;;;;;;0.10;0.10;;;4.50;99.90;;;;;;5050215;28;20457;-85
2022/02/11 09:22:15;;;;;;;0.10;0.10;;;4.50;99.90;;;;;;5039840;28;20112;-85
2022/02/11 09:24:42;;;;;;;0.10;0.10;;;4.50;99.90;;;;;;5050849;28;20130;-85
2022/02/11 09:27:09;;;;;;;0.10;0.10;;;4.50;99.90;;;;;;5047633;28;20046;-84
2022/02/11 09:29:36;;;;;;;0.10;0.10;;;4.50;99.90;;;;;;5015711;28;20077;-83
2022/02/11 09:32:03;;;;;;;0.22;0.22;;;5.60;99.90;;;;;;5028059;28;20049;-84
2022/02/11 09:34:32;;;;;;;0.20;0.20;;;4.50;99.90;;;;;;5051481;28;20049;-84
2022/02/11 09:36:59;;;;;;;0.10;0.10;;;4.50;99.90;;;;;;5039888;28;20041;-85
2022/02/11 09:39:26;;;;;;;0.20;0.20;;;4.50;99.90;;;;;;5067802;28;20052;-84
2022/02/11 09:41:54;;;;;;;0.20;0.20;;;4.80;99.90;;;;;;5059994;28;20041;-84
2022/02/11 09:44:24;;;;;;;0.10;0.10;;;4.60;99.90;;;;;;5049773;28;20075;-83
2022/02/11 09:46:51;;;;;;;0.10;0.10;;;4.70;99.90;;;;;;5049223;28;20050;-85
2022/02/11 09:49:18;;;;;;;0.13;0.13;;;4.70;99.90;;;;;;5058570;28;20167;-85
2022/02/11 09:51:47;;;;;;;0.10;0.10;;;4.90;99.90;;;;;;5041505;28;20038;-84
2022/02/11 09:54:17;;;;;;;0.10;0.10;;;4.80;99.90;;;;;;5051432;28;20033;-84
2022/02/11 09:56:44;;;;;;;0.10;0.10;;;4.70;99.90;;;;;;5050229;28;20258;-84
2022/02/11 09:59:11;;;;;;;0.10;0.10;;;4.70;99.90;;;;;;5050571;28;20052;-85
2022/02/11 10:01:42;;;;;;;0.10;0.10;;;4.60;99.90;;;;;;5051563;28;20045;-84
2022/02/11 10:04:17;;;;;;;0.10;0.10;;;4.50;99.90;;;;;;5049946;28;20061;-85
2022/02/11 10:06:48;;;;;;;0.10;0.10;;;4.20;99.90;;;;;;5075561;28;20045;-85
2022/02/11 10:09:16;;;;;;;0.10;0.10;;;4.10;99.90;;;;;;5034168;28;20088;-82
2022/02/11 10:11:44;;;;;;;0.10;0.10;;;4.00;99.90;;;;;;5033243;28;20041;-83
2022/02/11 10:14:26;;;;;;;0.10;0.10;;;4.10;99.90;;;;;;5050514;28;20030;-83
2022/02/11 10:17:05;;;;;;;0.10;0.10;;;4.20;99.90;;;;;;5060491;28;20037;-83
2022/02/11 10:19:54;;;;;;;0.10;0.10;;;3.90;99.90;;;;;;5061718;28;20153;-82
2022/02/11 10:22:23;;;;;;;0.10;0.10;;;4.00;99.90;;;;;;5056865;28;20044;-89
2022/02/11 10:24:50;;;;;;;0.10;0.10;;;4.20;99.90;;;;;;5057440;28;20107;-83
2022/02/11 10:27:30;;;;;;;0.10;0.10;;;4.20;99.90;;;;;;5033318;28;20049;-83
2022/02/11 10:30:05;;;;;;;0.10;0.10;;;4.30;99.90;;;;;;5066397;28;20034;-82
2022/02/11 10:32:44;;;;;;;0.10;0.10;;;4.40;99.90;;;;;;5049982;28;20482;-83
2022/02/11 10:35:26;;;;;;;0.20;0.20;;;4.40;99.90;;;;;;5050222;28;20559;-82
2022/02/11 10:38:05;;;;;;;0.10;0.10;;;4.50;99.90;;;;;;5049681;28;20068;-82
2022/02/11 10:40:34;;;;;;;0.10;0.10;;;4.60;99.90;;;;;;5049856;28;20045;-83
2022/02/11 10:43:01;;;;;;;0.10;0.10;;;5.10;99.90;;;;;;5049385;28;20069;-83
2022/02/11 10:45:37;;;;;;;0.20;0.20;;;4.70;99.90;;;;;;5050034;28;20041;-83
2022/02/11 10:48:17;;;;;;;0.10;0.10;;;4.80;99.90;;;;;;5049515;28;20038;-83
2022/02/11 10:50:58;;;;;;;0.10;0.10;;;4.70;99.90;;;;;;5055878;28;20037;-83
2022/02/11 10:53:30;;;;;;;0.10;0.10;;;4.80;99.90;;;;;;5015072;28;20050;-84
2022/02/11 10:56:04;;;;;;;0.10;0.10;;;4.80;99.90;;;;;;5054830;28;20469;-83
2022/02/11 10:58:32;;;;;;;0.10;0.10;;;4.80;99.90;;;;;;5049389;28;20117;-86
2022/02/11 11:01:01;;;;;;;0.10;0.10;;;4.80;99.90;;;;;;5032921;28;20049;-84
2022/02/11 11:03:31;;;;;;;0.10;0.10;;;4.80;99.90;;;;;;5048959;28;20410;-84
2022/02/11 11:06:00;;;;;;;0.00;0.00;;;4.60;99.90;;;;;;5049247;28;20514;-84
2022/02/11 11:08:28;;;;;;;0.10;0.10;;;4.50;99.90;;;;;;5049727;28;20064;-83
2022/02/11 11:10:59;;;;;;;0.10;0.10;;;4.40;99.90;;;;;;5049077;28;20037;-83
2022/02/11 11:13:28;;;;;;;0.10;0.10;;;4.30;99.90;;;;;;5049645;28;20080;-83
2022/02/11 11:15:55;;;;;;;0.10;0.10;;;4.20;99.90;;;;;;5066017;28;20049;-82
2022/02/11 11:18:22;;;;;;;0.10;0.10;;;4.50;99.90;;;;;;5065866;28;20080;-84
2022/02/11 11:20:50;;;;;;;0.10;0.10;;;4.40;99.90;;;;;;5048815;28;20072;-83
2022/02/11 11:23:21;;;;;;;0.10;0.10;;;4.40;99.90;;;;;;5032985;28;20037;-84
2022/02/11 11:25:54;;;;;;;0.10;0.10;;;4.50;99.90;;;;;;5048226;28;20045;-85
2022/02/11 11:28:50;;;;;;;0.10;0.10;;;4.70;99.90;;;;;;5049436;28;20037;-83
2022/02/11 11:31:27;;;;;;;0.10;0.10;;;4.70;99.90;;;;;;5032825;28;20506;-85
2022/02/11 11:34:15;;;;;;;0.10;0.10;;;4.70;99.90;;;;;;5065564;28;20038;-84
2022/02/11 11:36:45;;;;;;;0.10;0.10;;;4.70;99.90;;;;;;5068466;28;20498;-84
2022/02/11 11:39:13;;;;;;;0.10;0.10;;;4.80;99.90;;;;;;5052847;28;20041;-84
2022/02/11 11:41:39;;;;;;;0.10;0.10;;;5.30;99.90;;;;;;5053047;28;20052;-83
2022/02/11 11:44:18;;;;;;;0.10;0.10;;;4.90;99.90;;;;;;5048869;28;20049;-83
2022/02/11 11:46:50;;;;;;;0.15;0.15;;;4.90;99.90;;;;;;5048847;28;20053;-83
2022/02/11 11:49:21;;;;;;;0.10;0.10;;;5.00;99.90;;;;;;5032817;28;20037;-83
2022/02/11 11:51:48;;;;;;;0.20;0.20;;;5.80;99.90;;;;;;5054443;28;20079;-83
2022/02/11 11:54:17;;;;;;;0.10;0.10;;;5.10;99.90;;;;;;5049094;28;20498;-86
2022/02/11 11:56:47;;;;;;;0.10;0.10;;;5.10;99.90;;;;;;5050517;28;20045;-93
2022/02/11 11:59:35;;;;;;;0.10;0.10;;;5.10;99.90;;;;;;5052735;28;20041;-93
2022/02/11 12:02:20;;;;;;;0.10;0.10;;;5.20;99.90;;;;;;5048447;28;20045;-92
2022/02/11 12:04:57;;;;;;;0.10;0.10;;;5.20;99.90;;;;;;5071279;28;20478;-92
2022/02/11 12:07:27;;;;;;;0.10;0.10;;;5.20;99.90;;;;;;5070752;28;20044;-91
2022/02/11 12:09:59;;;;;;;0.10;0.10;;;5.20;99.90;;;;;;5062900;28;20079;-90
2022/02/11 12:12:31;;;;;;;0.10;0.10;;;5.20;99.90;;;;;;5055716;28;20037;-90
2022/02/11 12:15:03;;;;;;;0.10;0.10;;;5.40;99.90;;;;;;5071835;28;20075;-90
2022/02/11 12:17:31;;;;;;;0.10;0.10;;;5.40;99.90;;;;;;5073363;28;20040;-90
2022/02/11 12:19:59;;;;;;;0.10;0.10;;;6.40;99.90;;;;;;5071274;28;20048;-91
2022/02/11 12:22:30;;;;;;;0.15;0.15;;;5.80;99.90;;;;;;5072304;28;20131;-90
2022/02/11 12:27:46;;;;;;;0.10;0.10;;;6.10;99.90;;;;;;5074078;28;20068;-91
2022/02/11 12:30:14;;;;;;;0.10;0.10;;;6.10;99.90;;;;;;5070866;28;20037;-89
2022/02/11 12:32:46;;;;;;;0.10;0.10;;;6.20;99.90;;;;;;5071308;28;20036;-92
2022/02/11 12:35:21;;;;;;;0.10;0.10;;;6.10;99.90;;;;;;5071126;28;20033;-91
2022/02/11 12:37:48;;;;;;;0.10;0.10;;;6.00;99.90;;;;;;5072463;28;20128;-90
2022/02/11 12:40:24;;;;;;;0.10;0.10;;;5.90;99.90;;;;;;5074743;28;20501;-91
2022/02/11 12:42:53;;;;;;;0.10;0.10;;;5.90;99.90;;;;;;5075147;28;20049;-91
2022/02/11 12:45:32;;;;;;;0.10;0.10;;;5.80;99.90;;;;;;5074275;28;20049;-90
2022/02/11 12:48:02;;;;;;;0.10;0.10;;;5.80;99.90;;;;;;5074868;28;20120;-90
2022/02/11 12:50:34;;;;;;;0.10;0.10;;;6.30;99.90;;;;;;5075033;28;20418;-89
2022/02/11 12:53:05;;;;;;;0.10;0.10;;;5.60;99.90;;;;;;5090622;28;20044;-91
2022/02/11 12:55:36;;;;;;;0.10;0.10;;;5.70;99.90;;;;;;5074863;28;20037;-92
2022/02/11 12:58:07;;;;;;;0.10;0.10;;;5.70;99.90;;;;;;5074689;28;20407;-90
2022/02/11 13:00:39;;;;;;;0.10;0.10;;;5.80;99.90;;;;;;5075092;28;20056;-90
2022/02/11 13:03:08;;;;;;;0.10;0.10;;;6.30;99.90;;;;;;5090510;28;20136;-90
2022/02/11 13:05:46;;;;;;;0.10;0.10;;;6.40;99.90;;;;;;5057897;28;20060;-90
2022/02/11 13:08:28;;;;;;;0.10;0.10;;;5.80;99.90;;;;;;5073742;28;20041;-89
2022/02/11 13:11:02;;;;;;;0.10;0.10;;;5.80;99.90;;;;;;5090574;28;20074;-91
2022/02/11 13:13:32;;;;;;;0.10;0.10;;;5.90;99.90;;;;;;5075626;28;20045;-92
2022/02/11 13:16:04;;;;;;;0.10;0.10;;;5.90;99.90;;;;;;5057534;28;20052;-90
2022/02/11 13:18:35;;;;;;;0.10;0.10;;;5.90;99.90;;;;;;5057466;28;20486;-92
2022/02/11 13:21:05;;;;;;;0.10;0.10;;;6.60;99.90;;;;;;5074159;28;20048;-92
2022/02/11 13:23:32;;;;;;;0.10;0.10;;;5.80;99.90;;;;;;5073412;28;20409;-90
2022/02/11 13:26:00;;;;;;;0.10;0.10;;;6.10;99.90;;;;;;5057482;28;20044;-93
2022/02/11 13:28:28;;;;;;;0.10;0.10;;;5.70;99.90;;;;;;5073525;28;20556;-92
2022/02/11 13:30:59;;;;;;;0.10;0.10;;;5.60;99.90;;;;;;5057958;28;20486;-90
2022/02/11 13:33:36;;;;;;;0.10;0.10;;;5.90;99.90;;;;;;5057428;28;20032;-90
2022/02/11 13:36:08;;;;;;;0.10;0.10;;;5.70;99.90;;;;;;5073319;28;20450;-93
2022/02/11 13:38:38;;;;;;;0.10;0.10;;;5.80;99.90;;;;;;5090310;28;20049;-91
2022/02/11 13:41:12;;;;;;;0.10;0.10;;;5.70;99.90;;;;;;5063364;28;20045;-90
2022/02/11 13:44:07;;;;;;;0.10;0.10;;;5.80;99.90;;;;;;5053760;28;20048;-90
2022/02/11 13:46:48;;;;;;;0.10;0.10;;;5.70;99.90;;;;;;5053797;28;20075;-95
2022/02/11 13:49:16;;;;;;;0.10;0.10;;;5.00;99.90;;;;;;5054028;28;20064;-91
2022/02/11 13:55:07;;;;;;;0.10;0.10;;;5.60;99.90;;;;;;5072704;28;20621;-90
2022/02/11 13:57:36;;;;;;;0.10;0.10;;;5.60;99.90;;;;;;5053318;28;20041;-93
2022/02/11 14:00:26;;;;;;;0.10;0.10;;;5.90;99.90;;;;;;5054122;28;20406;-91
2022/02/11 14:02:53;;;;;;;0.00;0.00;;;5.60;99.90;;;;;;5057772;28;20049;-90
2022/02/11 14:05:21;;;;;;;0.10;0.10;;;5.60;99.90;;;;;;5034949;28;20084;-93
2022/02/11 14:07:52;;;;;;;0.10;0.10;;;5.60;99.90;;;;;;5056563;28;20041;-94
2022/02/11 14:10:19;;;;;;;0.10;0.10;;;5.60;99.90;;;;;;5059506;28;20037;-91
2022/02/11 14:12:46;;;;;;;0.10;0.10;;;5.60;99.90;;;;;;5068904;28;20036;-90
2022/02/11 14:15:14;;;;;;;0.10;0.10;;;5.60;99.90;;;;;;5067319;28;20047;-90
2022/02/11 14:17:42;;;;;;;0.10;0.10;;;5.60;99.90;;;;;;5051756;28;20049;-90
2022/02/11 14:20:10;;;;;;;0.00;0.00;;;5.50;99.90;;;;;;5054391;28;20037;-93
2022/02/11 14:22:40;;;;;;;0.00;0.00;;;6.30;99.90;;;;;;5052737;28;20111;-91
2022/02/11 14:25:07;;;;;;;0.10;0.10;;;6.40;99.90;;;;;;5033145;28;20044;-91
2022/02/11 14:27:35;;;;;;;0.10;0.10;;;5.50;99.90;;;;;;5048488;28;20045;-92
2022/02/11 14:30:03;;;;;;;0.10;0.10;;;5.40;99.90;;;;;;5036583;28;20510;-91
2022/02/11 14:32:30;;;;;;;0.05;0.05;;;5.40;99.90;;;;;;5035901;28;20037;-90
2022/02/11 14:34:56;;;;;;;0.10;0.10;;;5.60;99.90;;;;;;5035694;28;20092;-90
2022/02/11 14:37:23;;;;;;;0.10;0.10;;;5.40;99.90;;;;;;5034758;28;20428;-90
2022/02/11 14:39:50;;;;;;;0.10;0.10;;;5.40;99.90;;;;;;5069405;28;20042;-91
2022/02/11 14:42:19;;;;;;;0.00;0.00;;;5.40;99.90;;;;;;5051136;28;20132;-91
2022/02/11 14:44:47;;;;;;;0.10;0.10;;;5.50;99.90;;;;;;5052150;28;20483;-90
2022/02/11 14:47:14;;;;;;;0.05;0.05;;;5.40;99.90;;;;;;5034319;28;20498;-90
2022/02/11 14:49:45;;;;;;;0.10;0.10;;;5.40;99.90;;;;;;5035901;28;20037;-91
2022/02/11 14:52:14;;;;;;;0.10;0.10;;;5.40;99.90;;;;;;5033533;28;20030;-91
2022/02/11 14:54:41;;;;;;;0.10;0.10;;;5.40;99.90;;;;;;5050512;28;20041;-86
2022/02/11 14:57:08;;;;;;;0.10;0.10;;;5.40;99.90;;;;;;5033462;28;20883;-86
2022/02/11 14:59:35;;;;;;;0.10;0.10;;;5.30;99.90;;;;;;5050163;28;20095;-87
2022/02/11 15:02:04;;;;;;;0.10;0.10;;;5.80;99.90;;;;;;5048701;28;20045;-86
2022/02/11 15:04:31;;;;;;;0.10;0.10;;;5.30;99.90;;;;;;5070475;28;20053;-87
2022/02/11 15:07:01;;;;;;;0.10;0.10;;;5.30;99.90;;;;;;5061262;28;20041;-87
2022/02/11 15:09:28;;;;;;;0.10;0.10;;;5.30;99.90;;;;;;5050862;28;20807;-88
2022/02/11 15:11:55;;;;;;;0.10;0.10;;;5.30;99.90;;;;;;5066227;28;20071;-87
2022/02/11 15:14:22;;;;;;;0.08;0.08;;;5.30;99.90;;;;;;5066952;28;20103;-87
2022/02/11 15:16:49;;;;;;;0.10;0.10;;;5.30;99.90;;;;;;5034645;28;20132;-87
2022/02/11 15:19:18;;;;;;;0.10;0.10;;;5.30;99.90;;;;;;5050394;28;20048;-87
2022/02/11 15:21:46;;;;;;;0.03;0.03;;;6.30;99.90;;;;;;5050512;28;20521;-86
2022/02/11 15:24:13;;;;;;;0.10;0.10;;;5.40;99.90;;;;;;5051015;28;20037;-87
2022/02/11 15:26:41;;;;;;;0.10;0.10;;;5.30;99.90;;;;;;5050007;28;20107;-87
2022/02/11 15:29:07;;;;;;;0.10;0.10;;;5.30;99.90;;;;;;5050535;28;20528;-87
2022/02/11 15:31:36;;;;;;;0.10;0.10;;;5.30;99.90;;;;;;5050387;28;20045;-87
2022/02/11 15:34:04;;;;;;;0.10;0.10;;;6.10;99.90;;;;;;5034063;28;20095;-87
2022/02/11 15:36:32;;;;;;;0.10;0.10;;;5.20;99.90;;;;;;5049657;28;20410;-87
2022/02/11 15:38:58;;;;;;;0.10;0.10;;;5.20;99.90;;;;;;5050500;28;20059;-87
2022/02/11 15:41:28;;;;;;;0.10;0.10;;;5.10;99.90;;;;;;5049637;28;20510;-88
2022/02/11 15:43:55;;;;;;;0.10;0.10;;;5.10;99.90;;;;;;5034078;28;20041;-88
2022/02/11 15:46:23;;;;;;;0.10;0.10;;;5.10;99.90;;;;;;5049433;28;20046;-87
2022/02/11 15:48:49;;;;;;;0.10;0.10;;;5.00;99.90;;;;;;5050310;28;20124;-87
2022/02/11 15:51:16;;;;;;;0.10;0.10;;;5.00;99.90;;;;;;5050082;28;20124;-87
2022/02/11 15:53:43;;;;;;;0.10;0.10;;;5.30;99.90;;;;;;5030028;28;20513;-86
2022/02/11 15:56:09;;;;;;;0.10;0.10;;;4.90;99.90;;;;;;5032914;28;20045;-88
2022/02/11 15:58:36;;;;;;;0.10;0.10;;;4.90;99.90;;;;;;5033717;28;20112;-87
2022/02/11 16:01:03;;;;;;;0.00;0.00;;;4.80;99.90;;;;;;5051595;28;20517;-88
2022/02/11 16:03:30;;;;;;;0.10;0.10;;;4.70;99.90;;;;;;5070182;28;20623;-86
2022/02/11 16:05:56;;;;;;;0.10;0.10;;;5.00;99.90;;;;;;5070403;28;20151;-86
2022/02/11 16:08:24;;;;;;;0.10;0.10;;;4.90;99.90;;;;;;5053802;28;20043;-87
2022/02/11 16:10:50;;;;;;;0.10;0.10;;;5.00;99.90;;;;;;5036513;28;20080;-87
2022/02/11 16:13:20;;;;;;;0.10;0.10;;;4.90;99.90;;;;;;5023542;28;20072;-87
2022/02/11 16:15:47;;;;;;;0.10;0.10;;;4.50;99.90;;;;;;5075342;28;20045;-86
2022/02/11 16:18:16;;;;;;;0.10;0.10;;;4.50;99.90;;;;;;5069011;28;20044;-89
2022/02/11 16:20:45;;;;;;;0.10;0.10;;;5.50;99.90;;;;;;5030845;28;20038;-87
2022/02/11 16:23:17;;;;;;;0.15;0.15;;;4.50;99.90;;;;;;5044729;28;20515;-86
2022/02/11 16:25:45;;;;;;;0.10;0.10;;;4.40;99.90;;;;;;5034931;28;20045;-85
2022/02/11 16:28:14;;;;;;;0.10;0.10;;;4.80;99.90;;;;;;5047413;28;20555;-87
2022/02/11 16:30:56;;;;;;;0.10;0.10;;;4.40;99.90;;;;;;5030231;28;20828;-89
2022/02/11 16:33:23;;;;;;;0.10;0.10;;;4.50;99.90;;;;;;5051292;28;20056;-85
2022/02/11 16:36:15;;;;;;;0.10;0.10;;;4.30;99.90;;;;;;5027757;28;20037;-89
2022/02/11 16:41:51;;;;;;;0.10;0.10;;;4.70;99.90;;;;;;5023182;28;20049;-86
2022/02/11 16:44:18;;;;;;;0.10;0.10;;;4.10;99.90;;;;;;5052123;28;20494;-87
2022/02/11 16:46:46;;;;;;;0.10;0.10;;;4.00;99.90;;;;;;5052794;28;20113;-86
2022/02/11 16:49:13;;;;;;;0.10;0.10;;;4.50;99.90;;;;;;5052027;28;20042;-85
2022/02/11 16:51:45;;;;;;;0.10;0.10;;;4.20;99.90;;;;;;5036694;28;20076;-86
2022/02/11 16:54:12;;;;;;;0.10;0.10;;;4.20;99.90;;;;;;5036745;28;20045;-86
2022/02/11 16:56:39;;;;;;;0.10;0.10;;;4.10;99.90;;;;;;5052876;28;20398;-86
2022/02/11 16:59:05;;;;;;;0.10;0.10;;;3.60;99.90;;;;;;5063213;28;20037;-87
2022/02/11 17:01:32;;;;;;;0.10;0.10;;;3.60;99.90;;;;;;5036852;28;20041;-87